createdAt,value
2023-04-28T00:00:36.961Z,7.22
2023-04-28T00:01:59.706Z,3.44
2023-04-28T00:03:21.770Z,10.60
2023-04-28T00:04:44.479Z,4.37
2023-04-28T00:06:06.952Z,4.39
2023-04-28T00:07:29.102Z,4.81
2023-04-28T00:08:51.579Z,4.21
2023-04-28T00:10:16.021Z,6.59
2023-04-28T00:11:37.882Z,9.94
2023-04-28T00:13:00.446Z,4.84
2023-04-28T00:14:21.914Z,4.45
2023-04-28T00:15:44.238Z,5.06
2023-04-28T00:17:06.198Z,4.90
2023-04-28T00:18:28.326Z,4.27
2023-04-28T00:19:51.718Z,5.03
2023-04-28T00:22:35.991Z,5.21
2023-04-28T00:23:59.072Z,5.51
2023-04-28T00:25:21.165Z,5.46
2023-04-28T00:26:43.177Z,5.42
2023-04-28T00:28:05.034Z,6.04
2023-04-28T00:29:29.531Z,4.30
2023-04-28T00:30:51.510Z,4.47
2023-04-28T00:32:12.906Z,5.51
2023-04-28T00:33:37.376Z,4.27
2023-04-28T00:34:58.567Z,6.14
2023-04-28T00:36:23.239Z,3.99
2023-04-28T00:37:45.217Z,7.29
2023-04-28T00:39:06.697Z,10.01
2023-04-28T00:40:38.179Z,8.01
2023-04-28T00:41:59.897Z,7.64
2023-04-28T00:43:22.582Z,8.51
2023-04-28T00:44:45.661Z,7.07
2023-04-28T00:46:07.559Z,6.00
2023-04-28T00:47:29.341Z,3.62
2023-04-28T00:48:51.097Z,6.47
2023-04-28T00:50:13.638Z,6.46
2023-04-28T00:51:35.793Z,4.59
2023-04-28T00:52:58.355Z,5.88
2023-04-28T00:54:19.944Z,5.84
2023-04-28T00:55:41.142Z,6.18
2023-04-28T00:57:02.741Z,6.54
2023-04-28T00:58:24.913Z,8.67
2023-04-28T00:59:46.651Z,4.97
2023-04-28T01:01:10.901Z,4.59
2023-04-28T01:02:33.297Z,6.86
2023-04-28T01:03:56.916Z,4.94
2023-04-28T01:05:18.829Z,4.51
2023-04-28T01:06:40.240Z,7.22
2023-04-28T01:08:02.456Z,4.61
2023-04-28T01:09:24.518Z,5.08
2023-04-28T01:10:46.317Z,8.62
2023-04-28T01:12:08.141Z,6.83
2023-04-28T01:13:29.954Z,6.22
2023-04-28T01:14:52.125Z,6.29
2023-04-28T01:16:14.522Z,8.29
2023-04-28T01:17:36.629Z,10.76
2023-04-28T01:18:58.748Z,8.93
2023-04-28T01:21:43.656Z,8.76
2023-04-28T01:23:05.221Z,6.38
2023-04-28T01:24:27.521Z,8.68
2023-04-28T01:25:49.648Z,6.71
2023-04-28T01:27:11.894Z,11.97
2023-04-28T01:28:33.722Z,7.77
2023-04-28T01:29:57.445Z,8.32
2023-04-28T01:31:20.105Z,7.29
2023-04-28T01:32:45.559Z,9.73
2023-04-28T01:34:07.914Z,7.92
2023-04-28T01:35:30.551Z,5.99
2023-04-28T01:36:52.608Z,6.23
2023-04-28T01:38:14.659Z,9.09
2023-04-28T01:39:36.467Z,6.99
2023-04-28T01:40:58.771Z,8.34
2023-04-28T01:42:20.525Z,10.84
2023-04-28T01:43:42.433Z,7.92
2023-04-28T01:45:05.409Z,9.03
2023-04-28T01:46:27.481Z,8.16
2023-04-28T01:47:49.196Z,8.49
2023-04-28T01:49:12.032Z,7.07
2023-04-28T01:50:34.280Z,10.78
2023-04-28T01:51:56.875Z,9.37
2023-04-28T01:53:20.359Z,6.80
2023-04-28T01:54:43.940Z,7.41
2023-04-28T01:56:05.423Z,7.23
2023-04-28T01:57:28.576Z,8.22
2023-04-28T01:58:50.437Z,12.81
2023-04-28T02:00:12.944Z,7.27
2023-04-28T02:01:36.803Z,8.32
2023-04-28T02:02:59.433Z,9.19
2023-04-28T02:04:21.767Z,7.60
2023-04-28T02:05:43.339Z,9.49
2023-04-28T02:07:05.443Z,7.33
2023-04-28T02:08:26.662Z,7.39
2023-04-28T02:09:49.366Z,8.47
2023-04-28T02:11:11.175Z,8.06
2023-04-28T02:12:33.347Z,7.04
2023-04-28T02:13:55.142Z,6.47
2023-04-28T02:15:16.885Z,7.77
2023-04-28T02:16:39.948Z,6.60
2023-04-28T02:19:24.963Z,5.67
2023-04-28T02:20:46.730Z,6.35
2023-04-28T02:22:08.767Z,7.12
2023-04-28T02:23:33.616Z,7.75
2023-04-28T02:24:55.787Z,8.68
2023-04-28T02:26:17.961Z,6.94
2023-04-28T02:27:39.928Z,7.20
2023-04-28T02:29:01.911Z,7.31
2023-04-28T02:30:24.036Z,5.56
2023-04-28T02:31:46.312Z,7.54
2023-04-28T02:33:08.039Z,6.52
2023-04-28T02:34:30.042Z,8.09
2023-04-28T02:35:54.961Z,7.25
2023-04-28T02:37:17.279Z,8.80
2023-04-28T02:38:40.095Z,8.95
2023-04-28T02:40:02.186Z,6.38
2023-04-28T02:41:24.445Z,9.54
2023-04-28T02:42:45.817Z,6.16
2023-04-28T02:44:06.864Z,7.44
2023-04-28T02:45:28.429Z,7.55
2023-04-28T02:46:51.348Z,7.96
2023-04-28T02:48:13.369Z,11.24
2023-04-28T02:49:35.137Z,9.94
2023-04-28T02:50:57.579Z,6.99
2023-04-28T02:52:19.488Z,12.39
2023-04-28T02:53:41.552Z,8.09
2023-04-28T02:55:03.331Z,7.24
2023-04-28T02:56:25.603Z,7.94
2023-04-28T02:57:47.367Z,7.76
2023-04-28T02:59:09.262Z,11.19
2023-04-28T03:00:30.844Z,7.53
2023-04-28T03:01:53.091Z,9.10
2023-04-28T03:03:22.877Z,6.41
2023-04-28T03:04:46.141Z,6.84
2023-04-28T03:06:08.774Z,7.79
2023-04-28T03:07:30.177Z,6.52
2023-04-28T03:08:52.286Z,8.88
2023-04-28T03:10:13.887Z,6.66
2023-04-28T03:11:35.893Z,8.37
2023-04-28T03:12:57.485Z,10.18
2023-04-28T03:14:19.109Z,6.40
2023-04-28T03:15:41.173Z,10.59
2023-04-28T03:17:02.579Z,8.36
2023-04-28T03:18:24.949Z,7.76
2023-04-28T03:19:48.360Z,7.62
2023-04-28T03:21:11.516Z,8.41
2023-04-28T03:22:33.133Z,7.71
2023-04-28T03:23:56.533Z,7.00
2023-04-28T03:25:18.749Z,7.16
2023-04-28T03:26:40.320Z,9.99
2023-04-28T03:28:02.714Z,6.36
2023-04-28T03:29:25.528Z,9.39
2023-04-28T03:30:47.501Z,6.69
2023-04-28T03:32:09.739Z,9.36
2023-04-28T03:33:31.629Z,7.56
2023-04-28T03:34:53.861Z,11.27
2023-04-28T03:36:15.927Z,6.81
2023-04-28T03:37:37.701Z,8.56
2023-04-28T03:38:59.318Z,8.63
2023-04-28T03:40:22.002Z,7.24
2023-04-28T03:41:43.483Z,8.53
2023-04-28T03:43:05.148Z,9.13
2023-04-28T03:44:27.098Z,8.64
2023-04-28T03:45:49.636Z,9.53
2023-04-28T03:47:11.832Z,7.45
2023-04-28T03:48:33.086Z,9.68
2023-04-28T03:49:54.794Z,9.01
2023-04-28T03:51:17.027Z,8.14
2023-04-28T03:52:39.505Z,8.97
2023-04-28T03:54:03.645Z,10.62
2023-04-28T03:55:25.578Z,10.91
2023-04-28T03:56:46.950Z,8.22
2023-04-28T03:58:09.859Z,7.27
2023-04-28T03:59:33.773Z,7.34
2023-04-28T04:00:56.025Z,9.37
2023-04-28T04:02:21.994Z,9.83
2023-04-28T04:03:44.260Z,8.99
2023-04-28T04:05:08.431Z,8.42
2023-04-28T04:06:31.296Z,10.47
2023-04-28T04:07:52.914Z,9.82
2023-04-28T04:09:14.088Z,8.73
2023-04-28T04:10:36.434Z,13.79
2023-04-28T04:12:00.679Z,8.53
2023-04-28T04:13:22.869Z,8.49
2023-04-28T04:14:45.491Z,11.00
2023-04-28T04:16:08.256Z,10.02
2023-04-28T04:17:30.173Z,8.66
2023-04-28T04:18:51.968Z,9.02
2023-04-28T04:20:14.413Z,9.60
2023-04-28T04:21:36.149Z,10.86
2023-04-28T04:22:58.382Z,9.11
2023-04-28T04:24:21.950Z,9.07
2023-04-28T04:25:45.425Z,10.39
2023-04-28T04:27:07.630Z,10.11
2023-04-28T04:28:30.259Z,9.11
2023-04-28T04:29:52.229Z,12.17
2023-04-28T04:31:14.211Z,9.89
2023-04-28T04:32:36.609Z,9.61
2023-04-28T04:33:58.348Z,7.21
2023-04-28T04:35:23.962Z,8.00
2023-04-28T04:36:46.251Z,13.24
2023-04-28T04:38:09.972Z,10.29
2023-04-28T04:39:32.261Z,9.69
2023-04-28T04:40:54.443Z,10.66
2023-04-28T04:42:25.509Z,9.59
2023-04-28T04:43:45.360Z,10.82
2023-04-28T04:45:08.150Z,8.51
2023-04-28T04:47:53.269Z,9.81
2023-04-28T04:49:17.106Z,10.56
2023-04-28T04:50:38.911Z,10.54
2023-04-28T04:52:01.665Z,9.93
2023-04-28T04:53:23.763Z,9.39
2023-04-28T04:54:46.477Z,9.97
2023-04-28T04:56:08.324Z,8.69
2023-04-28T04:57:30.475Z,8.49
2023-04-28T04:58:56.160Z,10.09
2023-04-28T05:00:20.211Z,10.86
2023-04-28T05:01:44.068Z,8.41
2023-04-28T05:03:10.418Z,11.17
2023-04-28T05:04:34.265Z,10.99
2023-04-28T05:05:56.197Z,9.17
2023-04-28T05:07:18.155Z,8.72
2023-04-28T05:08:41.950Z,10.96
2023-04-28T05:10:04.442Z,8.43
2023-04-28T05:11:26.850Z,6.43
2023-04-28T05:12:52.295Z,13.79
2023-04-28T05:14:16.354Z,11.28
2023-04-28T05:15:38.078Z,11.38
2023-04-28T05:17:08.204Z,9.96
2023-04-28T05:18:31.219Z,8.91
2023-04-28T05:19:53.259Z,7.88
2023-04-28T05:21:20.479Z,6.42
2023-04-28T05:22:43.376Z,9.33
2023-04-28T05:25:49.002Z,15.13
2023-04-28T05:27:12.477Z,11.45
2023-04-28T05:28:35.074Z,9.59
2023-04-28T05:29:56.574Z,8.82
2023-04-28T05:33:08.847Z,12.11
2023-04-28T05:34:31.710Z,8.37
2023-04-28T05:37:43.652Z,7.30
2023-04-28T05:39:11.114Z,8.68
2023-04-28T05:42:18.188Z,8.03
2023-04-28T05:43:48.545Z,9.98
2023-04-28T05:45:17.546Z,10.50
2023-04-28T05:46:45.762Z,6.81
2023-04-28T05:49:50.995Z,6.14
2023-04-28T05:51:32.212Z,12.64
2023-04-28T05:53:05.116Z,10.11
2023-04-28T05:54:45.356Z,14.01
2023-04-28T05:56:11.572Z,7.19
2023-04-28T05:59:26.736Z,11.16
2023-04-28T06:00:55.959Z,12.61
2023-04-28T06:02:20.589Z,12.43
2023-04-28T06:04:03.225Z,10.39
2023-04-28T06:05:26.977Z,17.17
2023-04-28T06:07:05.501Z,7.16
2023-04-28T06:08:29.476Z,13.33
2023-04-28T06:15:02.018Z,11.10
2023-04-28T06:16:32.016Z,29.66
2023-04-28T06:17:51.355Z,9.42
2023-04-28T06:24:17.109Z,13.79
2023-04-28T06:25:59.548Z,7.08
2023-04-28T06:27:28.705Z,9.86
2023-04-28T07:03:33.510Z,12.29
2023-04-28T08:28:39.963Z,6.28
2023-04-28T08:30:02.331Z,5.84
2023-04-28T08:31:25.904Z,8.04
2023-04-28T08:32:48.483Z,10.32
2023-04-28T08:34:10.678Z,6.36
2023-04-28T08:35:33.055Z,7.27
2023-04-28T08:40:20.490Z,5.57
2023-04-28T08:41:44.816Z,6.66
2023-04-28T08:43:07.132Z,5.18
2023-04-28T08:44:29.277Z,5.24
2023-04-28T08:45:51.262Z,5.51
2023-04-28T08:47:15.993Z,6.64
2023-04-28T08:48:43.917Z,5.62
2023-04-28T08:50:10.070Z,7.57
2023-04-28T08:51:36.468Z,7.26
2023-04-28T08:55:02.221Z,11.66
2023-04-28T08:56:25.404Z,7.92
2023-04-28T08:57:50.471Z,5.45
2023-04-28T08:59:12.844Z,7.01
2023-04-28T09:00:37.747Z,5.73
2023-04-28T09:01:59.410Z,5.64
2023-04-28T09:03:24.861Z,7.92
2023-04-28T09:04:49.613Z,7.08
2023-04-28T09:06:16.037Z,5.79
2023-04-28T09:07:38.056Z,5.55
2023-04-28T09:09:22.409Z,7.66
2023-04-28T09:10:47.067Z,8.31
2023-04-28T09:12:09.896Z,5.44
2023-04-28T09:13:31.451Z,4.32
2023-04-28T09:14:56.549Z,6.43
2023-04-28T09:16:18.123Z,7.84
2023-04-28T09:17:50.085Z,7.41
2023-04-28T09:19:12.360Z,7.47
2023-04-28T09:22:26.392Z,6.03
2023-04-28T09:25:17.484Z,6.59
2023-04-28T09:26:52.559Z,7.51
2023-04-28T09:28:24.567Z,6.95
2023-04-28T09:30:01.205Z,10.19
2023-04-28T09:31:24.441Z,7.57
2023-04-28T09:32:52.840Z,10.66
2023-04-28T09:34:14.840Z,16.60
2023-04-28T09:35:40.285Z,5.47
2023-04-28T09:37:06.852Z,12.11
2023-04-28T09:38:28.388Z,5.61
2023-04-28T09:39:52.191Z,5.84
2023-04-28T09:41:16.135Z,6.78
2023-04-28T09:42:42.317Z,8.59
2023-04-28T09:44:17.044Z,5.09
2023-04-28T09:45:39.884Z,6.19
2023-04-28T09:47:02.309Z,4.86
2023-04-28T09:49:56.000Z,11.81
2023-04-28T09:51:21.966Z,5.77
2023-04-28T09:52:45.358Z,7.18
2023-04-28T09:54:07.349Z,4.66
2023-04-28T09:55:32.738Z,6.12
2023-04-28T09:57:00.476Z,5.52
2023-04-28T09:58:23.687Z,6.02
2023-04-28T09:59:49.144Z,7.58
2023-04-28T10:01:11.402Z,6.46
2023-04-28T10:02:43.496Z,10.58
2023-04-28T10:03:58.581Z,13.13
2023-04-28T10:05:21.531Z,8.65
2023-04-28T10:06:46.227Z,11.06
2023-04-28T10:08:09.705Z,9.46
2023-04-28T10:09:32.724Z,9.58
2023-04-28T10:10:55.051Z,11.64
2023-04-28T10:12:17.961Z,16.63
2023-04-28T10:13:39.574Z,10.33
2023-04-28T10:15:01.489Z,8.56
2023-04-28T10:16:27.315Z,5.38
2023-04-28T10:17:49.950Z,10.84
2023-04-28T10:19:13.504Z,12.39
2023-04-28T10:20:35.586Z,6.42
2023-04-28T10:25:14.899Z,6.88
2023-04-28T10:27:00.414Z,6.45
2023-04-28T10:28:22.461Z,5.82
2023-04-28T10:31:13.250Z,12.64
2023-04-28T10:32:36.731Z,11.06
2023-04-28T10:33:58.847Z,9.02
2023-04-28T10:35:37.653Z,7.40
2023-04-28T10:36:59.541Z,7.29
2023-04-28T10:38:21.485Z,9.01
2023-04-28T10:40:03.649Z,6.98
2023-04-28T10:41:33.390Z,10.99
2023-04-28T10:42:55.896Z,8.24
2023-04-28T10:44:36.449Z,5.12
2023-04-28T10:45:59.551Z,9.64
2023-04-28T10:47:21.298Z,9.73
2023-04-28T10:48:52.781Z,5.62
2023-04-28T10:50:20.135Z,8.16
2023-04-28T10:51:41.884Z,8.73
2023-04-28T10:53:03.818Z,11.13
2023-04-28T10:54:25.900Z,7.49
2023-04-28T10:55:48.153Z,9.82
2023-04-28T10:57:17.119Z,7.11
2023-04-28T10:58:40.600Z,9.55
2023-04-28T11:00:30.364Z,7.11
2023-04-28T11:01:52.870Z,6.26
2023-04-28T11:03:47.295Z,5.91
2023-04-28T11:05:13.885Z,11.11
2023-04-28T11:06:37.999Z,10.02
2023-04-28T11:08:31.931Z,12.64
2023-04-28T11:09:54.056Z,10.53
2023-04-28T11:11:17.457Z,8.25
2023-04-28T11:13:00.587Z,6.65
2023-04-28T11:14:28.069Z,5.29
2023-04-28T11:16:04.818Z,12.39
2023-04-28T11:17:34.985Z,15.62
2023-04-28T11:18:58.564Z,6.52
2023-04-28T11:20:22.146Z,4.47
2023-04-28T11:21:43.836Z,6.00
2023-04-28T11:24:40.408Z,12.94
2023-04-28T11:26:03.354Z,10.26
2023-04-28T11:28:57.804Z,32.64
2023-04-28T11:30:22.958Z,7.36
2023-04-28T11:41:02.422Z,5.88
2023-04-28T11:44:22.356Z,26.12
2023-04-28T11:49:50.304Z,10.43
2023-04-28T11:55:15.058Z,10.07
2023-04-28T11:56:41.575Z,5.75
2023-04-28T11:58:22.268Z,7.01
2023-04-28T11:59:44.803Z,11.59
2023-04-28T12:01:10.867Z,11.67
2023-04-28T12:02:34.243Z,7.03
2023-04-28T12:03:58.964Z,16.46
2023-04-28T12:05:25.608Z,19.28
2023-04-28T12:06:50.876Z,4.78
2023-04-28T12:08:23.301Z,7.67
2023-04-28T12:11:14.090Z,8.07
2023-04-28T12:14:07.807Z,7.02
2023-04-28T12:15:43.126Z,4.28
2023-04-28T12:17:05.492Z,5.97
2023-04-28T12:18:32.082Z,5.79
2023-04-28T12:21:21.358Z,3.64
2023-04-28T12:22:44.981Z,4.96
2023-04-28T12:24:18.728Z,4.42
2023-04-28T12:25:44.365Z,5.31
2023-04-28T12:27:19.677Z,8.43
2023-04-28T12:28:41.023Z,10.68
2023-04-28T12:30:08.581Z,7.22
2023-04-28T12:31:30.916Z,9.93
2023-04-28T12:32:53.585Z,16.14
2023-04-28T12:34:15.089Z,6.78
2023-04-28T12:35:37.685Z,6.80
2023-04-28T12:37:01.456Z,5.99
2023-04-28T12:38:26.645Z,8.74
2023-04-28T12:39:48.852Z,9.01
2023-04-28T12:41:12.102Z,2.73
2023-04-28T12:42:36.663Z,4.27
2023-04-28T12:43:58.360Z,6.92
2023-04-28T12:45:20.899Z,8.74
2023-04-28T12:48:05.848Z,11.37
2023-04-28T12:49:29.365Z,6.49
2023-04-28T12:50:50.610Z,7.89
2023-04-28T12:52:13.748Z,13.09
2023-04-28T12:53:35.161Z,5.67
2023-04-28T12:54:56.966Z,7.01
2023-04-28T12:56:18.866Z,6.31
2023-04-28T12:57:41.139Z,4.42
2023-04-28T12:59:02.794Z,8.28
2023-04-28T13:00:32.999Z,8.51
2023-04-28T13:02:01.898Z,4.52
2023-04-28T13:03:41.118Z,8.30
2023-04-28T13:05:06.626Z,11.23
2023-04-28T13:06:37.762Z,9.20
2023-04-28T13:07:59.758Z,6.25
2023-04-28T13:09:33.818Z,6.67
2023-04-28T13:10:57.250Z,7.17
2023-04-28T13:24:19.365Z,4.28
2023-04-28T13:27:09.463Z,7.53
2023-04-28T13:28:36.121Z,11.39
2023-04-28T13:30:03.139Z,11.79
2023-04-28T13:31:25.776Z,10.54
2023-04-28T13:32:47.724Z,5.54
2023-04-28T13:34:09.832Z,3.63
2023-04-28T13:35:31.814Z,10.08
2023-04-28T13:36:53.282Z,3.23
2023-04-28T13:38:16.719Z,4.96
2023-04-28T13:39:39.055Z,4.22
2023-04-28T13:42:23.869Z,5.19
2023-04-28T13:43:45.580Z,5.78
2023-04-28T13:45:09.936Z,6.15
2023-04-28T13:46:33.513Z,12.37
2023-04-28T13:47:57.089Z,11.68
2023-04-28T13:49:19.492Z,8.45
2023-04-28T13:50:41.088Z,6.82
2023-04-28T13:52:02.745Z,4.99
2023-04-28T13:53:27.549Z,6.72
2023-04-28T13:54:49.840Z,7.54
2023-04-28T13:57:34.705Z,4.48
2023-04-28T13:58:56.806Z,6.09
2023-04-28T14:00:19.286Z,4.41
2023-04-28T14:01:40.871Z,6.16
2023-04-28T14:03:04.053Z,4.78
2023-04-28T14:04:26.232Z,5.24
2023-04-28T14:07:09.562Z,8.30
2023-04-28T14:08:31.080Z,11.62
2023-04-28T14:09:53.753Z,4.05
2023-04-28T14:11:16.574Z,5.71
2023-04-28T14:12:37.798Z,9.17
2023-04-28T14:14:03.453Z,4.44
2023-04-28T14:15:27.456Z,6.11
2023-04-28T14:16:58.768Z,6.30
2023-04-28T14:18:20.219Z,4.89
2023-04-28T14:19:44.345Z,7.83
2023-04-28T14:21:06.660Z,8.87
2023-04-28T14:22:28.668Z,8.87
2023-04-28T14:23:51.017Z,7.57
2023-04-28T14:25:19.157Z,6.84
2023-04-28T14:27:56.582Z,5.04
2023-04-28T14:29:18.635Z,9.63
2023-04-28T14:30:40.303Z,12.47
2023-04-28T14:32:01.788Z,7.76
2023-04-28T14:33:23.911Z,6.37
2023-04-28T14:34:45.879Z,3.79
2023-04-28T14:36:07.718Z,7.36
2023-04-28T14:37:31.613Z,6.79
2023-04-28T14:38:56.715Z,12.86
2023-04-28T14:40:20.107Z,6.52
2023-04-28T14:41:41.438Z,6.06
2023-04-28T14:43:03.761Z,4.97
2023-04-28T14:44:24.890Z,4.46
2023-04-28T14:45:46.710Z,5.07
2023-04-28T14:47:09.511Z,4.62
2023-04-28T14:48:33.777Z,9.43
2023-04-28T14:49:55.283Z,5.78
2023-04-28T14:51:17.294Z,8.52
2023-04-28T14:52:39.926Z,12.59
2023-04-28T14:54:01.840Z,7.38
2023-04-28T14:55:23.523Z,5.89
2023-04-28T14:56:44.881Z,4.18
2023-04-28T14:58:07.712Z,5.87
2023-04-28T14:59:29.842Z,8.24
2023-04-28T15:00:54.577Z,5.89
2023-04-28T15:02:25.807Z,6.21
2023-04-28T15:03:48.177Z,4.53
2023-04-28T15:07:55.951Z,5.22
2023-04-28T15:09:17.913Z,7.08
2023-04-28T15:10:40.153Z,14.92
2023-04-28T15:12:02.352Z,12.17
2023-04-28T15:13:23.530Z,6.92
2023-04-28T15:14:45.961Z,4.13
2023-04-28T15:16:11.184Z,5.14
2023-04-28T15:17:32.498Z,7.32
2023-04-28T15:18:54.762Z,7.56
2023-04-28T15:20:17.489Z,5.18
2023-04-28T15:21:39.788Z,8.60
2023-04-28T15:23:02.016Z,5.84
2023-04-28T15:24:24.050Z,5.04
2023-04-28T15:25:47.081Z,21.97
2023-04-28T15:27:08.199Z,6.92
2023-04-28T15:28:30.066Z,4.96
2023-04-28T15:29:51.717Z,6.88
2023-04-28T15:31:14.107Z,4.02
2023-04-28T15:32:37.584Z,5.65
2023-04-28T15:33:58.694Z,7.12
2023-04-28T15:35:20.325Z,4.59
2023-04-28T15:36:42.689Z,10.41
2023-04-28T15:38:03.838Z,10.62
2023-04-28T15:39:25.940Z,12.62
2023-04-28T15:40:47.368Z,7.23
2023-04-28T15:42:10.850Z,6.01
2023-04-28T15:43:32.413Z,11.34
2023-04-28T15:44:54.419Z,7.98
2023-04-28T15:46:15.768Z,8.02
2023-04-28T15:47:38.045Z,10.83
2023-04-28T15:48:59.659Z,13.41
2023-04-28T15:50:21.602Z,16.53
2023-04-28T15:51:43.906Z,9.98
2023-04-28T15:53:05.366Z,8.44
2023-04-28T15:54:29.089Z,9.89
2023-04-28T15:55:51.118Z,11.82
2023-04-28T15:57:12.788Z,14.93
2023-04-28T15:58:34.532Z,11.76
2023-04-28T15:59:56.709Z,5.48
2023-04-28T16:01:19.508Z,6.17
2023-04-28T16:02:41.785Z,6.02
2023-04-28T16:04:03.879Z,8.23
2023-04-28T16:05:25.617Z,10.14
2023-04-28T16:06:48.987Z,8.22
2023-04-28T16:08:10.826Z,9.12
2023-04-28T16:09:33.708Z,7.37
2023-04-28T16:10:54.837Z,6.68
2023-04-28T16:12:16.684Z,3.98
2023-04-28T16:13:37.818Z,5.81
2023-04-28T16:15:00.138Z,8.71
2023-04-28T16:16:21.203Z,7.14
2023-04-28T16:17:42.641Z,3.99
2023-04-28T16:19:06.097Z,5.36
2023-04-28T16:20:29.482Z,10.18
2023-04-28T16:21:51.177Z,13.29
2023-04-28T16:23:13.986Z,11.21
2023-04-28T16:24:36.258Z,5.39
2023-04-28T16:25:59.797Z,8.18
2023-04-28T16:27:21.853Z,4.31
2023-04-28T16:29:59.325Z,5.98
2023-04-28T16:31:21.789Z,7.02
2023-04-28T16:32:43.484Z,3.73
2023-04-28T16:34:05.353Z,9.37
2023-04-28T16:35:26.891Z,7.80
2023-04-28T16:36:48.861Z,5.40
2023-04-28T16:38:10.605Z,8.29
2023-04-28T16:39:32.685Z,8.63
2023-04-28T16:40:55.973Z,6.68
2023-04-28T16:42:17.540Z,16.33
2023-04-28T16:43:39.344Z,4.31
2023-04-28T16:45:01.506Z,6.86
2023-04-28T16:46:22.638Z,13.71
2023-04-28T16:47:45.922Z,7.78
2023-04-28T16:49:07.715Z,6.86
2023-04-28T16:50:30.805Z,5.85
2023-04-28T16:53:11.786Z,7.79
2023-04-28T16:54:35.609Z,5.89
2023-04-28T16:55:57.620Z,6.04
2023-04-28T16:57:19.491Z,5.28
2023-04-28T16:58:40.576Z,5.52
2023-04-28T17:00:03.893Z,7.59
2023-04-28T17:01:26.144Z,5.03
2023-04-28T17:02:47.885Z,6.59
2023-04-28T17:04:09.786Z,6.82
2023-04-28T17:05:35.833Z,7.91
2023-04-28T17:06:57.669Z,6.44
2023-04-28T17:08:19.463Z,6.68
2023-04-28T17:09:40.779Z,7.74
2023-04-28T17:11:03.286Z,7.04
2023-04-28T17:12:25.001Z,8.66
2023-04-28T17:13:46.158Z,14.29
2023-04-28T17:15:09.494Z,18.65
2023-04-28T17:16:31.872Z,8.40
2023-04-28T17:17:53.634Z,5.56
2023-04-28T17:19:15.004Z,6.44
2023-04-28T17:20:36.509Z,11.56
2023-04-28T17:21:58.554Z,12.45
2023-04-28T17:23:20.573Z,9.41
2023-04-28T17:24:42.591Z,8.30
2023-04-28T17:26:04.679Z,5.63
2023-04-28T17:27:31.807Z,9.97
2023-04-28T17:28:54.538Z,6.34
2023-04-28T17:30:16.183Z,8.03
2023-04-28T17:31:39.160Z,10.01
2023-04-28T17:33:01.384Z,9.68
2023-04-28T17:34:23.678Z,10.14
2023-04-28T17:35:45.398Z,8.21
2023-04-28T17:37:07.104Z,8.16
2023-04-28T17:38:28.822Z,7.68
2023-04-28T17:39:52.310Z,10.45
2023-04-28T17:41:13.999Z,6.99
2023-04-28T17:42:35.668Z,7.72
2023-04-28T17:43:57.997Z,10.67
2023-04-28T17:45:22.969Z,11.74
2023-04-28T17:46:44.531Z,12.41
2023-04-28T17:48:06.875Z,8.46
2023-04-28T17:49:29.221Z,8.92
2023-04-28T17:50:50.647Z,12.42
2023-04-28T17:52:13.771Z,13.88
2023-04-28T17:53:35.365Z,14.06
2023-04-28T17:54:56.831Z,13.78
2023-04-28T17:56:19.692Z,12.82
2023-04-28T17:59:02.364Z,9.79
2023-04-28T18:00:23.508Z,11.74
2023-04-28T18:01:45.846Z,12.23
2023-04-28T18:03:07.301Z,13.65
2023-04-28T18:04:30.815Z,12.56
2023-04-28T18:05:53.040Z,10.92
2023-04-28T18:07:14.596Z,14.06
2023-04-28T18:08:36.856Z,12.84
2023-04-28T18:09:59.100Z,18.23
2023-04-28T18:11:22.323Z,15.40
2023-04-28T18:12:45.047Z,18.63
2023-04-28T18:14:06.595Z,16.26
2023-04-28T18:15:28.268Z,18.20
2023-04-28T18:16:50.081Z,17.67
2023-04-28T18:18:12.207Z,20.63
2023-04-28T18:19:34.066Z,17.99
2023-04-28T18:20:58.778Z,18.75
2023-04-28T18:22:20.801Z,17.93
2023-04-28T18:23:41.900Z,21.89
2023-04-28T18:25:04.795Z,17.92
2023-04-28T18:26:27.318Z,19.68
2023-04-28T18:27:49.823Z,18.27
2023-04-28T18:29:11.901Z,13.81
2023-04-28T18:30:33.506Z,16.86
2023-04-28T18:31:55.769Z,19.54
2023-04-28T18:33:18.548Z,16.43
2023-04-28T18:34:41.361Z,14.48
2023-04-28T18:36:04.772Z,17.19
2023-04-28T18:37:26.382Z,16.76
2023-04-28T18:38:47.410Z,15.99
2023-04-28T18:40:12.123Z,14.36
2023-04-28T18:41:34.095Z,14.96
2023-04-28T18:42:57.084Z,14.52
2023-04-28T18:50:06.509Z,15.39
2023-04-28T18:51:28.771Z,13.53
2023-04-28T18:52:51.861Z,18.04
2023-04-28T18:54:13.707Z,11.66
2023-04-28T18:55:35.133Z,10.03
2023-04-28T18:56:57.460Z,11.20
2023-04-28T18:58:18.645Z,14.04
2023-04-28T18:59:40.611Z,13.61
2023-04-28T19:01:02.264Z,12.43
2023-04-28T19:02:24.079Z,8.41
2023-04-28T19:03:45.608Z,14.28
2023-04-28T19:05:07.476Z,10.69
2023-04-28T19:06:29.956Z,11.57
2023-04-28T19:07:51.566Z,10.65
2023-04-28T19:09:13.252Z,13.16
2023-04-28T19:10:36.147Z,13.22
2023-04-28T19:11:59.667Z,11.22
2023-04-28T19:13:21.085Z,11.94
2023-04-28T19:14:43.134Z,10.38
2023-04-28T19:16:04.786Z,12.04
2023-04-28T19:17:27.166Z,15.62
2023-04-28T19:18:48.645Z,10.23
2023-04-28T19:20:11.219Z,11.37
2023-04-28T19:21:36.455Z,9.41
2023-04-28T19:22:58.272Z,10.62
2023-04-28T19:24:21.602Z,11.75
2023-04-28T19:25:43.420Z,10.93
2023-04-28T19:27:05.234Z,13.63
2023-04-28T19:28:26.973Z,9.39
2023-04-28T19:29:49.058Z,11.11
2023-04-28T19:31:10.843Z,11.43
2023-04-28T19:32:33.304Z,8.47
2023-04-28T19:33:55.739Z,8.43
2023-04-28T19:35:18.141Z,7.75
2023-04-28T19:36:39.736Z,8.97
2023-04-28T19:39:21.800Z,9.14
2023-04-28T19:40:45.788Z,12.22
2023-04-28T19:42:07.850Z,7.59
2023-04-28T19:43:29.366Z,9.91
2023-04-28T19:44:55.601Z,10.56
2023-04-28T19:46:17.167Z,9.27
2023-04-28T19:47:38.368Z,12.89
2023-04-28T19:49:00.781Z,31.49
2023-04-28T19:50:22.462Z,17.15
2023-04-28T19:51:44.345Z,8.61
2023-04-28T19:53:05.557Z,13.31
2023-04-28T19:54:27.858Z,13.75
2023-04-28T19:55:49.851Z,11.24
2023-04-28T19:57:11.918Z,13.68
2023-04-28T19:58:33.324Z,15.08
2023-04-28T19:59:54.887Z,17.28
2023-04-28T20:01:18.035Z,17.79
2023-04-28T20:02:39.760Z,13.32
2023-04-28T20:04:01.118Z,14.35
2023-04-28T20:05:25.742Z,19.86
2023-04-28T20:06:47.940Z,26.61
2023-04-28T20:08:10.810Z,27.28
2023-04-28T20:09:34.077Z,23.37
2023-04-28T20:10:56.942Z,21.87
2023-04-28T20:12:23.593Z,19.99
2023-04-28T20:13:45.501Z,15.70
2023-04-28T20:15:07.740Z,22.58
2023-04-28T20:16:29.785Z,19.19
2023-04-28T20:17:51.640Z,24.37
2023-04-28T20:19:13.697Z,23.96
2023-04-28T20:20:35.731Z,21.63
2023-04-28T20:21:58.201Z,16.22
2023-04-28T20:23:20.276Z,18.73
2023-04-28T20:24:42.594Z,13.58
2023-04-28T20:26:04.672Z,15.93
2023-04-28T20:27:26.686Z,12.76
2023-04-28T20:28:48.655Z,21.28
2023-04-28T20:30:11.557Z,15.41
2023-04-28T20:31:33.264Z,22.97
2023-04-28T20:32:55.873Z,16.24
2023-04-28T20:34:17.494Z,11.38
2023-04-28T20:35:39.593Z,13.72
2023-04-28T20:37:01.292Z,14.11
2023-04-28T20:38:23.085Z,14.63
2023-04-28T20:39:45.003Z,11.79
2023-04-28T20:41:07.565Z,14.54
2023-04-28T20:42:29.099Z,16.01
2023-04-28T20:43:50.242Z,19.59
2023-04-28T20:45:12.283Z,11.54
2023-04-28T20:46:34.716Z,10.29
2023-04-28T20:47:56.624Z,18.25
2023-04-28T20:49:19.490Z,33.30
2023-04-28T20:50:41.303Z,63.96
2023-04-28T20:53:18.691Z,20.32
2023-04-28T20:54:41.236Z,43.51
2023-04-28T20:56:02.890Z,27.74
2023-04-28T20:57:24.993Z,29.08
2023-04-28T20:58:46.661Z,40.47
2023-04-28T21:00:09.854Z,28.25
2023-04-28T21:01:31.826Z,69.71
2023-04-28T21:02:54.290Z,48.56
2023-04-28T21:04:19.951Z,38.17
2023-04-28T21:05:43.436Z,16.44
2023-04-28T21:07:05.781Z,11.21
2023-04-28T21:08:28.866Z,14.63
2023-04-28T21:09:50.750Z,19.49
2023-04-28T21:12:25.117Z,33.49
2023-04-28T21:13:46.928Z,50.51
2023-04-28T21:15:10.492Z,40.01
2023-04-28T21:16:32.856Z,54.53
2023-04-28T21:17:55.971Z,53.69
2023-04-28T21:19:18.085Z,72.54
2023-04-28T21:20:39.571Z,61.07
2023-04-28T21:22:01.802Z,34.67
2023-04-28T21:23:23.800Z,27.31
2023-04-28T21:24:45.823Z,23.45
2023-04-28T21:26:07.441Z,52.17
2023-04-28T21:27:29.667Z,41.66
2023-04-28T21:28:51.806Z,56.04
2023-04-28T21:30:13.427Z,59.68
2023-04-28T21:31:35.264Z,57.73
2023-04-28T21:32:56.989Z,35.21
2023-04-28T21:34:18.717Z,51.32
2023-04-28T21:35:40.314Z,42.96
2023-04-28T21:37:01.795Z,64.08
2023-04-28T21:38:23.671Z,39.59
2023-04-28T21:39:46.043Z,43.18
2023-04-28T21:41:08.250Z,49.21
2023-04-28T21:42:31.264Z,33.79
2023-04-28T21:43:53.175Z,34.57
2023-04-28T21:45:14.742Z,30.74
2023-04-28T21:46:36.495Z,42.97
2023-04-28T21:47:58.106Z,47.19
2023-04-28T21:49:20.304Z,54.42
2023-04-28T21:50:41.383Z,53.01
2023-04-28T21:52:03.208Z,38.89
2023-04-28T21:53:25.315Z,56.82
2023-04-28T21:54:47.337Z,41.90
2023-04-28T21:56:09.102Z,49.56
2023-04-28T21:57:30.775Z,50.54
2023-04-28T21:58:52.102Z,23.11